sensor_id;sensor_type;location;lat;lon;timestamp;P1;durP1;ratioP1;P2;durP2;ratioP2
13208;SDS011;6669;42.678;23.332;2023-06-05T00:01:57;5.95;;;5.35;;
13208;SDS011;6669;42.678;23.332;2023-06-05T00:04:25;7.15;;;6.22;;
13208;SDS011;6669;42.678;23.332;2023-06-05T00:06:55;6.82;;;5.72;;
13208;SDS011;6669;42.678;23.332;2023-06-05T00:09:24;6.65;;;5.93;;
13208;SDS011;6669;42.678;23.332;2023-06-05T00:11:52;5.70;;;5.15;;
13208;SDS011;6669;42.678;23.332;2023-06-05T00:14:20;5.85;;;5.25;;
13208;SDS011;6669;42.678;23.332;2023-06-05T00:16:48;5.88;;;5.30;;
13208;SDS011;6669;42.678;23.332;2023-06-05T00:19:18;6.50;;;5.70;;
13208;SDS011;6669;42.678;23.332;2023-06-05T00:21:46;6.15;;;5.55;;
13208;SDS011;6669;42.678;23.332;2023-06-05T00:24:18;6.57;;;5.90;;
13208;SDS011;6669;42.678;23.332;2023-06-05T00:26:46;6.47;;;5.65;;
13208;SDS011;6669;42.678;23.332;2023-06-05T00:29:14;6.03;;;5.43;;
13208;SDS011;6669;42.678;23.332;2023-06-05T00:31:42;6.85;;;5.47;;
13208;SDS011;6669;42.678;23.332;2023-06-05T00:34:12;8.05;;;5.93;;
13208;SDS011;6669;42.678;23.332;2023-06-05T00:36:40;6.32;;;5.65;;
13208;SDS011;6669;42.678;23.332;2023-06-05T00:39:08;6.10;;;5.50;;
13208;SDS011;6669;42.678;23.332;2023-06-05T00:41:38;7.18;;;6.30;;
13208;SDS011;6669;42.678;23.332;2023-06-05T00:44:09;5.68;;;5.18;;
13208;SDS011;6669;42.678;23.332;2023-06-05T00:46:37;6.18;;;5.45;;
13208;SDS011;6669;42.678;23.332;2023-06-05T00:49:06;6.38;;;5.20;;
13208;SDS011;6669;42.678;23.332;2023-06-05T00:51:35;7.18;;;5.70;;
13208;SDS011;6669;42.678;23.332;2023-06-05T00:54:03;5.90;;;5.40;;
13208;SDS011;6669;42.678;23.332;2023-06-05T00:56:33;5.20;;;4.70;;
13208;SDS011;6669;42.678;23.332;2023-06-05T00:59:05;6.60;;;5.80;;
13208;SDS011;6669;42.678;23.332;2023-06-05T01:01:33;5.60;;;5.03;;
13208;SDS011;6669;42.678;23.332;2023-06-05T01:04:02;5.68;;;5.03;;
13208;SDS011;6669;42.678;23.332;2023-06-05T01:06:31;7.13;;;5.32;;
13208;SDS011;6669;42.678;23.332;2023-06-05T01:09:01;5.82;;;5.22;;
13208;SDS011;6669;42.678;23.332;2023-06-05T01:11:32;5.43;;;4.93;;
13208;SDS011;6669;42.678;23.332;2023-06-05T01:14:08;5.82;;;5.22;;
13208;SDS011;6669;42.678;23.332;2023-06-05T01:16:43;6.43;;;4.72;;
13208;SDS011;6669;42.678;23.332;2023-06-05T01:19:15;6.05;;;5.32;;
13208;SDS011;6669;42.678;23.332;2023-06-05T01:21:44;5.75;;;5.05;;
13208;SDS011;6669;42.678;23.332;2023-06-05T01:24:13;9.82;;;5.53;;
13208;SDS011;6669;42.678;23.332;2023-06-05T01:26:44;5.68;;;5.18;;
13208;SDS011;6669;42.678;23.332;2023-06-05T01:29:21;5.30;;;4.38;;
13208;SDS011;6669;42.678;23.332;2023-06-05T01:31:57;5.40;;;4.90;;
13208;SDS011;6669;42.678;23.332;2023-06-05T01:34:32;5.72;;;4.68;;
13208;SDS011;6669;42.678;23.332;2023-06-05T01:37:03;5.57;;;4.95;;
13208;SDS011;6669;42.678;23.332;2023-06-05T01:39:36;6.07;;;5.30;;
13208;SDS011;6669;42.678;23.332;2023-06-05T01:42:05;6.05;;;5.45;;
13208;SDS011;6669;42.678;23.332;2023-06-05T01:44:34;6.55;;;5.63;;
13208;SDS011;6669;42.678;23.332;2023-06-05T01:47:03;6.38;;;5.72;;
13208;SDS011;6669;42.678;23.332;2023-06-05T01:49:31;6.20;;;5.60;;
13208;SDS011;6669;42.678;23.332;2023-06-05T01:52:00;6.65;;;5.20;;
13208;SDS011;6669;42.678;23.332;2023-06-05T01:54:28;6.07;;;5.47;;
13208;SDS011;6669;42.678;23.332;2023-06-05T01:57:00;6.03;;;4.90;;
13208;SDS011;6669;42.678;23.332;2023-06-05T01:59:30;6.80;;;5.45;;
13208;SDS011;6669;42.678;23.332;2023-06-05T02:02:00;6.05;;;4.78;;
13208;SDS011;6669;42.678;23.332;2023-06-05T02:04:30;6.88;;;5.35;;
13208;SDS011;6669;42.678;23.332;2023-06-05T02:06:58;5.75;;;5.25;;
13208;SDS011;6669;42.678;23.332;2023-06-05T02:09:30;6.07;;;5.47;;
13208;SDS011;6669;42.678;23.332;2023-06-05T02:12:01;5.72;;;5.18;;
13208;SDS011;6669;42.678;23.332;2023-06-05T02:14:30;6.13;;;5.53;;
13208;SDS011;6669;42.678;23.332;2023-06-05T02:17:02;5.82;;;5.32;;
13208;SDS011;6669;42.678;23.332;2023-06-05T02:19:32;5.55;;;5.05;;
13208;SDS011;6669;42.678;23.332;2023-06-05T02:22:00;7.40;;;5.55;;
13208;SDS011;6669;42.678;23.332;2023-06-05T02:24:28;6.22;;;5.40;;
13208;SDS011;6669;42.678;23.332;2023-06-05T02:26:56;5.93;;;5.35;;
13208;SDS011;6669;42.678;23.332;2023-06-05T02:29:26;6.47;;;5.50;;
13208;SDS011;6669;42.678;23.332;2023-06-05T02:31:54;5.45;;;4.95;;
13208;SDS011;6669;42.678;23.332;2023-06-05T02:34:22;5.72;;;5.22;;
13208;SDS011;6669;42.678;23.332;2023-06-05T02:36:51;5.65;;;5.15;;
13208;SDS011;6669;42.678;23.332;2023-06-05T02:39:19;6.28;;;5.05;;
13208;SDS011;6669;42.678;23.332;2023-06-05T02:41:47;5.72;;;4.97;;
13208;SDS011;6669;42.678;23.332;2023-06-05T02:44:15;5.43;;;4.78;;
13208;SDS011;6669;42.678;23.332;2023-06-05T02:46:44;4.72;;;4.22;;
13208;SDS011;6669;42.678;23.332;2023-06-05T02:49:12;5.72;;;5.10;;
13208;SDS011;6669;42.678;23.332;2023-06-05T02:51:40;6.25;;;5.20;;
13208;SDS011;6669;42.678;23.332;2023-06-05T02:54:09;5.72;;;4.97;;
13208;SDS011;6669;42.678;23.332;2023-06-05T02:56:37;5.25;;;4.70;;
13208;SDS011;6669;42.678;23.332;2023-06-05T02:59:05;5.82;;;5.18;;
13208;SDS011;6669;42.678;23.332;2023-06-05T03:01:35;5.38;;;4.88;;
13208;SDS011;6669;42.678;23.332;2023-06-05T03:04:05;6.40;;;5.25;;
13208;SDS011;6669;42.678;23.332;2023-06-05T03:06:33;5.93;;;4.97;;
13208;SDS011;6669;42.678;23.332;2023-06-05T03:09:01;5.90;;;5.30;;
13208;SDS011;6669;42.678;23.332;2023-06-05T03:11:29;6.68;;;5.45;;
13208;SDS011;6669;42.678;23.332;2023-06-05T03:13:58;6.15;;;5.45;;
13208;SDS011;6669;42.678;23.332;2023-06-05T03:16:26;7.32;;;5.43;;
13208;SDS011;6669;42.678;23.332;2023-06-05T03:19:05;6.40;;;5.57;;
13208;SDS011;6669;42.678;23.332;2023-06-05T03:21:33;6.50;;;5.35;;
13208;SDS011;6669;42.678;23.332;2023-06-05T03:24:02;6.32;;;4.97;;
13208;SDS011;6669;42.678;23.332;2023-06-05T03:26:30;6.88;;;5.75;;
13208;SDS011;6669;42.678;23.332;2023-06-05T03:28:58;5.88;;;5.00;;
13208;SDS011;6669;42.678;23.332;2023-06-05T03:31:26;6.55;;;5.80;;
13208;SDS011;6669;42.678;23.332;2023-06-05T03:33:54;6.20;;;5.38;;
13208;SDS011;6669;42.678;23.332;2023-06-05T03:36:26;7.00;;;6.30;;
13208;SDS011;6669;42.678;23.332;2023-06-05T03:38:54;7.10;;;6.32;;
13208;SDS011;6669;42.678;23.332;2023-06-05T03:41:23;13.45;;;10.05;;
13208;SDS011;6669;42.678;23.332;2023-06-05T03:43:52;7.43;;;6.25;;
13208;SDS011;6669;42.678;23.332;2023-06-05T03:46:20;7.07;;;6.30;;
13208;SDS011;6669;42.678;23.332;2023-06-05T03:48:50;7.00;;;6.28;;
13208;SDS011;6669;42.678;23.332;2023-06-05T03:51:26;6.50;;;5.70;;
13208;SDS011;6669;42.678;23.332;2023-06-05T03:53:56;7.28;;;6.57;;
13208;SDS011;6669;42.678;23.332;2023-06-05T03:56:24;7.05;;;6.40;;
13208;SDS011;6669;42.678;23.332;2023-06-05T03:58:58;7.05;;;6.30;;
13208;SDS011;6669;42.678;23.332;2023-06-05T04:01:34;7.40;;;6.63;;
13208;SDS011;6669;42.678;23.332;2023-06-05T04:04:04;10.25;;;8.20;;
13208;SDS011;6669;42.678;23.332;2023-06-05T04:06:34;12.82;;;10.88;;
13208;SDS011;6669;42.678;23.332;2023-06-05T04:09:03;7.68;;;6.80;;
13208;SDS011;6669;42.678;23.332;2023-06-05T04:11:37;8.23;;;7.32;;
13208;SDS011;6669;42.678;23.332;2023-06-05T04:14:06;8.50;;;7.70;;
13208;SDS011;6669;42.678;23.332;2023-06-05T04:16:34;9.45;;;7.60;;
13208;SDS011;6669;42.678;23.332;2023-06-05T04:19:05;8.38;;;6.70;;
13208;SDS011;6669;42.678;23.332;2023-06-05T04:21:35;8.77;;;7.45;;
13208;SDS011;6669;42.678;23.332;2023-06-05T04:24:04;8.18;;;7.03;;
13208;SDS011;6669;42.678;23.332;2023-06-05T04:26:33;7.50;;;6.68;;
13208;SDS011;6669;42.678;23.332;2023-06-05T04:29:01;8.18;;;7.28;;
13208;SDS011;6669;42.678;23.332;2023-06-05T04:31:36;8.95;;;7.70;;
13208;SDS011;6669;42.678;23.332;2023-06-05T04:34:07;8.65;;;7.40;;
13208;SDS011;6669;42.678;23.332;2023-06-05T04:36:36;8.50;;;7.63;;
13208;SDS011;6669;42.678;23.332;2023-06-05T04:39:04;8.02;;;7.20;;
13208;SDS011;6669;42.678;23.332;2023-06-05T04:41:40;9.10;;;7.18;;
13208;SDS011;6669;42.678;23.332;2023-06-05T04:44:11;12.02;;;10.75;;
13208;SDS011;6669;42.678;23.332;2023-06-05T04:46:40;7.68;;;6.97;;
13208;SDS011;6669;42.678;23.332;2023-06-05T04:49:09;7.80;;;7.05;;
13208;SDS011;6669;42.678;23.332;2023-06-05T04:51:39;10.30;;;7.60;;
13208;SDS011;6669;42.678;23.332;2023-06-05T04:54:07;8.32;;;7.28;;
13208;SDS011;6669;42.678;23.332;2023-06-05T04:56:35;8.38;;;7.18;;
13208;SDS011;6669;42.678;23.332;2023-06-05T04:59:05;8.50;;;7.18;;
13208;SDS011;6669;42.678;23.332;2023-06-05T05:01:33;9.15;;;7.35;;
13208;SDS011;6669;42.678;23.332;2023-06-05T05:04:01;7.57;;;6.68;;
13208;SDS011;6669;42.678;23.332;2023-06-05T05:06:30;7.55;;;6.85;;
13208;SDS011;6669;42.678;23.332;2023-06-05T05:09:01;11.40;;;7.30;;
13208;SDS011;6669;42.678;23.332;2023-06-05T05:11:32;9.00;;;8.00;;
13208;SDS011;6669;42.678;23.332;2023-06-05T05:14:00;8.48;;;7.68;;
13208;SDS011;6669;42.678;23.332;2023-06-05T05:16:28;8.10;;;7.30;;
13208;SDS011;6669;42.678;23.332;2023-06-05T05:18:56;7.97;;;6.82;;
13208;SDS011;6669;42.678;23.332;2023-06-05T05:21:24;8.02;;;6.72;;
13208;SDS011;6669;42.678;23.332;2023-06-05T05:23:52;7.50;;;6.63;;
13208;SDS011;6669;42.678;23.332;2023-06-05T05:26:22;8.52;;;7.15;;
13208;SDS011;6669;42.678;23.332;2023-06-05T05:28:50;7.78;;;6.95;;
13208;SDS011;6669;42.678;23.332;2023-06-05T05:31:18;8.50;;;6.90;;
13208;SDS011;6669;42.678;23.332;2023-06-05T05:33:46;7.38;;;6.68;;
13208;SDS011;6669;42.678;23.332;2023-06-05T05:36:15;7.80;;;7.00;;
13208;SDS011;6669;42.678;23.332;2023-06-05T05:38:43;8.13;;;7.13;;
13208;SDS011;6669;42.678;23.332;2023-06-05T05:41:11;7.18;;;6.40;;
13208;SDS011;6669;42.678;23.332;2023-06-05T05:43:40;6.55;;;5.95;;
13208;SDS011;6669;42.678;23.332;2023-06-05T05:46:08;7.35;;;6.15;;
13208;SDS011;6669;42.678;23.332;2023-06-05T05:48:36;7.10;;;6.18;;
13208;SDS011;6669;42.678;23.332;2023-06-05T05:51:07;7.13;;;6.28;;
13208;SDS011;6669;42.678;23.332;2023-06-05T05:53:35;6.28;;;5.68;;
13208;SDS011;6669;42.678;23.332;2023-06-05T05:56:03;7.18;;;5.80;;
13208;SDS011;6669;42.678;23.332;2023-06-05T05:58:31;7.13;;;6.07;;
13208;SDS011;6669;42.678;23.332;2023-06-05T06:01:01;6.95;;;6.25;;
13208;SDS011;6669;42.678;23.332;2023-06-05T06:03:29;8.98;;;6.15;;
13208;SDS011;6669;42.678;23.332;2023-06-05T06:05:59;6.82;;;6.13;;
13208;SDS011;6669;42.678;23.332;2023-06-05T06:08:28;7.25;;;6.18;;
13208;SDS011;6669;42.678;23.332;2023-06-05T06:10:56;6.75;;;6.05;;
13208;SDS011;6669;42.678;23.332;2023-06-05T06:13:26;6.00;;;5.40;;
13208;SDS011;6669;42.678;23.332;2023-06-05T06:15:55;7.15;;;6.45;;
13208;SDS011;6669;42.678;23.332;2023-06-05T06:18:24;6.57;;;5.75;;
13208;SDS011;6669;42.678;23.332;2023-06-05T06:20:52;9.02;;;6.50;;
13208;SDS011;6669;42.678;23.332;2023-06-05T06:23:22;6.63;;;5.88;;
13208;SDS011;6669;42.678;23.332;2023-06-05T06:25:50;6.18;;;5.57;;
13208;SDS011;6669;42.678;23.332;2023-06-05T06:28:18;5.90;;;5.30;;
13208;SDS011;6669;42.678;23.332;2023-06-05T06:30:46;6.32;;;5.30;;
13208;SDS011;6669;42.678;23.332;2023-06-05T06:33:15;7.00;;;6.30;;
13208;SDS011;6669;42.678;23.332;2023-06-05T06:35:45;7.18;;;5.90;;
13208;SDS011;6669;42.678;23.332;2023-06-05T06:38:13;7.45;;;6.00;;
13208;SDS011;6669;42.678;23.332;2023-06-05T06:40:41;8.30;;;5.45;;
13208;SDS011;6669;42.678;23.332;2023-06-05T06:43:09;6.50;;;5.38;;
13208;SDS011;6669;42.678;23.332;2023-06-05T06:45:37;6.47;;;5.60;;
13208;SDS011;6669;42.678;23.332;2023-06-05T06:48:05;7.78;;;5.93;;
13208;SDS011;6669;42.678;23.332;2023-06-05T06:50:34;8.15;;;6.30;;
13208;SDS011;6669;42.678;23.332;2023-06-05T06:53:03;7.68;;;6.95;;
13208;SDS011;6669;42.678;23.332;2023-06-05T06:55:32;6.70;;;6.03;;
13208;SDS011;6669;42.678;23.332;2023-06-05T06:58:00;7.32;;;6.00;;
13208;SDS011;6669;42.678;23.332;2023-06-05T07:00:28;6.97;;;6.28;;
13208;SDS011;6669;42.678;23.332;2023-06-05T07:02:56;9.60;;;6.95;;
13208;SDS011;6669;42.678;23.332;2023-06-05T07:05:24;8.73;;;6.40;;
13208;SDS011;6669;42.678;23.332;2023-06-05T07:07:52;9.02;;;7.22;;
13208;SDS011;6669;42.678;23.332;2023-06-05T07:10:22;10.77;;;6.95;;
13208;SDS011;6669;42.678;23.332;2023-06-05T07:12:50;8.50;;;7.60;;
13208;SDS011;6669;42.678;23.332;2023-06-05T07:15:18;7.38;;;6.53;;
13208;SDS011;6669;42.678;23.332;2023-06-05T07:17:46;9.25;;;6.50;;
13208;SDS011;6669;42.678;23.332;2023-06-05T07:20:14;7.30;;;6.57;;
13208;SDS011;6669;42.678;23.332;2023-06-05T07:22:43;8.13;;;6.13;;
13208;SDS011;6669;42.678;23.332;2023-06-05T07:25:12;7.57;;;6.63;;
13208;SDS011;6669;42.678;23.332;2023-06-05T07:27:43;7.78;;;6.72;;
13208;SDS011;6669;42.678;23.332;2023-06-05T07:30:12;7.38;;;6.45;;
13208;SDS011;6669;42.678;23.332;2023-06-05T07:32:41;8.30;;;6.70;;
13208;SDS011;6669;42.678;23.332;2023-06-05T07:35:11;7.43;;;6.50;;
13208;SDS011;6669;42.678;23.332;2023-06-05T07:37:40;8.60;;;7.15;;
13208;SDS011;6669;42.678;23.332;2023-06-05T07:40:09;9.75;;;6.85;;
13208;SDS011;6669;42.678;23.332;2023-06-05T07:42:38;10.40;;;6.53;;
13208;SDS011;6669;42.678;23.332;2023-06-05T07:45:08;7.53;;;6.20;;
13208;SDS011;6669;42.678;23.332;2023-06-05T07:47:36;7.35;;;6.38;;
13208;SDS011;6669;42.678;23.332;2023-06-05T07:50:05;7.88;;;6.22;;
13208;SDS011;6669;42.678;23.332;2023-06-05T07:52:35;8.25;;;6.55;;
13208;SDS011;6669;42.678;23.332;2023-06-05T07:55:04;30.35;;;26.17;;
13208;SDS011;6669;42.678;23.332;2023-06-05T07:57:34;9.07;;;6.60;;
13208;SDS011;6669;42.678;23.332;2023-06-05T08:00:03;7.90;;;6.40;;
13208;SDS011;6669;42.678;23.332;2023-06-05T08:02:38;8.20;;;6.78;;
13208;SDS011;6669;42.678;23.332;2023-06-05T08:05:07;10.30;;;8.43;;
13208;SDS011;6669;42.678;23.332;2023-06-05T08:07:36;10.85;;;7.80;;
13208;SDS011;6669;42.678;23.332;2023-06-05T08:10:05;6.90;;;6.10;;
13208;SDS011;6669;42.678;23.332;2023-06-05T08:12:34;7.20;;;6.00;;
13208;SDS011;6669;42.678;23.332;2023-06-05T08:15:03;5.88;;;5.28;;
13208;SDS011;6669;42.678;23.332;2023-06-05T08:17:32;12.30;;;9.10;;
13208;SDS011;6669;42.678;23.332;2023-06-05T08:20:01;7.47;;;6.63;;
13208;SDS011;6669;42.678;23.332;2023-06-05T08:22:31;7.78;;;6.15;;
13208;SDS011;6669;42.678;23.332;2023-06-05T08:24:59;7.50;;;5.97;;
13208;SDS011;6669;42.678;23.332;2023-06-05T08:27:30;6.95;;;6.25;;
13208;SDS011;6669;42.678;23.332;2023-06-05T08:29:58;7.78;;;5.97;;
13208;SDS011;6669;42.678;23.332;2023-06-05T08:32:27;6.93;;;5.50;;
13208;SDS011;6669;42.678;23.332;2023-06-05T08:34:55;7.30;;;6.18;;
13208;SDS011;6669;42.678;23.332;2023-06-05T08:37:24;6.15;;;5.55;;
13208;SDS011;6669;42.678;23.332;2023-06-05T08:39:54;6.90;;;5.68;;
13208;SDS011;6669;42.678;23.332;2023-06-05T08:42:25;6.88;;;6.18;;
13208;SDS011;6669;42.678;23.332;2023-06-05T08:44:55;6.10;;;5.47;;
13208;SDS011;6669;42.678;23.332;2023-06-05T08:47:29;6.55;;;5.60;;
13208;SDS011;6669;42.678;23.332;2023-06-05T08:49:57;7.10;;;6.03;;
13208;SDS011;6669;42.678;23.332;2023-06-05T08:52:33;10.48;;;9.05;;
13208;SDS011;6669;42.678;23.332;2023-06-05T08:55:02;6.88;;;6.18;;
13208;SDS011;6669;42.678;23.332;2023-06-05T08:57:31;5.93;;;5.18;;
13208;SDS011;6669;42.678;23.332;2023-06-05T09:00:00;6.07;;;5.47;;
13208;SDS011;6669;42.678;23.332;2023-06-05T09:02:33;7.05;;;5.53;;
13208;SDS011;6669;42.678;23.332;2023-06-05T09:05:03;6.30;;;5.35;;
13208;SDS011;6669;42.678;23.332;2023-06-05T09:07:33;5.80;;;5.07;;
13208;SDS011;6669;42.678;23.332;2023-06-05T09:10:03;7.93;;;5.85;;
13208;SDS011;6669;42.678;23.332;2023-06-05T09:12:32;6.68;;;5.38;;
13208;SDS011;6669;42.678;23.332;2023-06-05T09:15:12;5.43;;;4.75;;
13208;SDS011;6669;42.678;23.332;2023-06-05T09:17:57;6.47;;;5.15;;
13208;SDS011;6669;42.678;23.332;2023-06-05T09:20:32;5.70;;;5.10;;
13208;SDS011;6669;42.678;23.332;2023-06-05T09:23:03;6.57;;;5.20;;
13208;SDS011;6669;42.678;23.332;2023-06-05T09:25:50;6.15;;;4.97;;
13208;SDS011;6669;42.678;23.332;2023-06-05T09:28:18;6.18;;;5.57;;
13208;SDS011;6669;42.678;23.332;2023-06-05T09:30:53;6.50;;;5.20;;
13208;SDS011;6669;42.678;23.332;2023-06-05T09:33:23;7.05;;;5.13;;
13208;SDS011;6669;42.678;23.332;2023-06-05T09:36:05;5.90;;;4.65;;
13208;SDS011;6669;42.678;23.332;2023-06-05T09:38:37;5.30;;;4.80;;
13208;SDS011;6669;42.678;23.332;2023-06-05T09:41:07;6.15;;;5.10;;
13208;SDS011;6669;42.678;23.332;2023-06-05T09:43:36;5.20;;;4.65;;
13208;SDS011;6669;42.678;23.332;2023-06-05T09:46:06;6.32;;;4.68;;
13208;SDS011;6669;42.678;23.332;2023-06-05T09:48:36;5.15;;;3.75;;
13208;SDS011;6669;42.678;23.332;2023-06-05T09:51:07;4.70;;;4.18;;
13208;SDS011;6669;42.678;23.332;2023-06-05T09:53:42;6.20;;;4.20;;
13208;SDS011;6669;42.678;23.332;2023-06-05T09:56:11;4.55;;;4.07;;
13208;SDS011;6669;42.678;23.332;2023-06-05T09:58:43;5.53;;;4.43;;
13208;SDS011;6669;42.678;23.332;2023-06-05T10:01:12;5.22;;;4.30;;
13208;SDS011;6669;42.678;23.332;2023-06-05T10:03:44;4.80;;;4.20;;
13208;SDS011;6669;42.678;23.332;2023-06-05T10:06:18;4.68;;;4.07;;
13208;SDS011;6669;42.678;23.332;2023-06-05T10:08:51;4.93;;;4.10;;
13208;SDS011;6669;42.678;23.332;2023-06-05T10:11:22;5.20;;;4.40;;
13208;SDS011;6669;42.678;23.332;2023-06-05T10:13:51;7.45;;;4.20;;
13208;SDS011;6669;42.678;23.332;2023-06-05T10:16:20;6.82;;;4.63;;
13208;SDS011;6669;42.678;23.332;2023-06-05T10:18:52;5.93;;;4.50;;
13208;SDS011;6669;42.678;23.332;2023-06-05T10:21:23;6.28;;;4.70;;
13208;SDS011;6669;42.678;23.332;2023-06-05T10:23:55;6.38;;;4.22;;
13208;SDS011;6669;42.678;23.332;2023-06-05T10:26:39;4.70;;;4.22;;
13208;SDS011;6669;42.678;23.332;2023-06-05T10:29:33;5.15;;;4.40;;
13208;SDS011;6669;42.678;23.332;2023-06-05T10:32:29;6.00;;;4.38;;
13208;SDS011;6669;42.678;23.332;2023-06-05T10:35:08;5.25;;;4.30;;
13208;SDS011;6669;42.678;23.332;2023-06-05T10:37:47;6.15;;;4.82;;
13208;SDS011;6669;42.678;23.332;2023-06-05T10:40:34;5.50;;;4.90;;
13208;SDS011;6669;42.678;23.332;2023-06-05T10:45:57;5.13;;;3.83;;
13208;SDS011;6669;42.678;23.332;2023-06-05T10:51:36;6.18;;;4.50;;
13208;SDS011;6669;42.678;23.332;2023-06-05T10:54:06;5.20;;;4.65;;
13208;SDS011;6669;42.678;23.332;2023-06-05T10:59:25;5.28;;;4.68;;
13208;SDS011;6669;42.678;23.332;2023-06-05T11:05:03;4.90;;;4.38;;
13208;SDS011;6669;42.678;23.332;2023-06-05T11:07:41;5.50;;;4.32;;
13208;SDS011;6669;42.678;23.332;2023-06-05T11:10:13;5.32;;;4.82;;
13208;SDS011;6669;42.678;23.332;2023-06-05T11:12:56;4.65;;;4.03;;
13208;SDS011;6669;42.678;23.332;2023-06-05T11:18:33;4.15;;;3.33;;
13208;SDS011;6669;42.678;23.332;2023-06-05T11:21:02;3.40;;;3.10;;
13208;SDS011;6669;42.678;23.332;2023-06-05T11:23:31;3.50;;;3.15;;
13208;SDS011;6669;42.678;23.332;2023-06-05T11:29:11;3.33;;;3.03;;
13208;SDS011;6669;42.678;23.332;2023-06-05T11:31:42;3.20;;;2.90;;
13208;SDS011;6669;42.678;23.332;2023-06-05T11:34:14;3.00;;;2.72;;
13208;SDS011;6669;42.678;23.332;2023-06-05T11:36:42;3.70;;;3.40;;
13208;SDS011;6669;42.678;23.332;2023-06-05T11:39:11;3.58;;;3.28;;
13208;SDS011;6669;42.678;23.332;2023-06-05T11:41:43;3.67;;;3.38;;
13208;SDS011;6669;42.678;23.332;2023-06-05T11:44:13;4.05;;;3.45;;
13208;SDS011;6669;42.678;23.332;2023-06-05T11:46:43;4.05;;;3.17;;
13208;SDS011;6669;42.678;23.332;2023-06-05T11:49:22;4.05;;;3.67;;
13208;SDS011;6669;42.678;23.332;2023-06-05T11:51:52;5.32;;;4.07;;
13208;SDS011;6669;42.678;23.332;2023-06-05T11:54:27;3.70;;;3.20;;
13208;SDS011;6669;42.678;23.332;2023-06-05T11:57:00;4.18;;;3.78;;
13208;SDS011;6669;42.678;23.332;2023-06-05T11:59:36;3.40;;;3.10;;
13208;SDS011;6669;42.678;23.332;2023-06-05T12:02:05;3.42;;;2.90;;
13208;SDS011;6669;42.678;23.332;2023-06-05T12:04:33;4.60;;;3.35;;
13208;SDS011;6669;42.678;23.332;2023-06-05T12:07:02;3.47;;;3.15;;
13208;SDS011;6669;42.678;23.332;2023-06-05T12:09:30;3.13;;;2.92;;
13208;SDS011;6669;42.678;23.332;2023-06-05T12:12:06;3.05;;;2.80;;
13208;SDS011;6669;42.678;23.332;2023-06-05T12:14:37;3.35;;;3.05;;
13208;SDS011;6669;42.678;23.332;2023-06-05T12:17:08;3.65;;;3.22;;
13208;SDS011;6669;42.678;23.332;2023-06-05T12:19:37;4.38;;;3.80;;
13208;SDS011;6669;42.678;23.332;2023-06-05T12:22:06;3.40;;;2.90;;
13208;SDS011;6669;42.678;23.332;2023-06-05T12:24:36;3.40;;;3.10;;
13208;SDS011;6669;42.678;23.332;2023-06-05T12:27:05;3.22;;;2.92;;
13208;SDS011;6669;42.678;23.332;2023-06-05T12:29:34;2.90;;;2.63;;
13208;SDS011;6669;42.678;23.332;2023-06-05T12:32:20;3.35;;;3.00;;
13208;SDS011;6669;42.678;23.332;2023-06-05T12:34:50;4.75;;;2.97;;
13208;SDS011;6669;42.678;23.332;2023-06-05T12:37:29;3.30;;;3.00;;
13208;SDS011;6669;42.678;23.332;2023-06-05T12:40:01;4.38;;;3.35;;
13208;SDS011;6669;42.678;23.332;2023-06-05T12:42:35;3.28;;;2.83;;
13208;SDS011;6669;42.678;23.332;2023-06-05T12:45:04;3.10;;;2.90;;
13208;SDS011;6669;42.678;23.332;2023-06-05T12:47:35;3.40;;;3.10;;
13208;SDS011;6669;42.678;23.332;2023-06-05T12:50:04;3.83;;;3.30;;
13208;SDS011;6669;42.678;23.332;2023-06-05T12:52:33;3.17;;;2.85;;
13208;SDS011;6669;42.678;23.332;2023-06-05T12:55:01;3.75;;;3.00;;
13208;SDS011;6669;42.678;23.332;2023-06-05T12:57:31;3.33;;;2.60;;
13208;SDS011;6669;42.678;23.332;2023-06-05T13:00:02;3.38;;;3.08;;
13208;SDS011;6669;42.678;23.332;2023-06-05T13:02:40;3.03;;;2.83;;
13208;SDS011;6669;42.678;23.332;2023-06-05T13:05:11;3.20;;;2.90;;
13208;SDS011;6669;42.678;23.332;2023-06-05T13:07:39;2.90;;;2.70;;
13208;SDS011;6669;42.678;23.332;2023-06-05T13:10:08;3.50;;;3.20;;
13208;SDS011;6669;42.678;23.332;2023-06-05T13:12:38;3.55;;;2.50;;
13208;SDS011;6669;42.678;23.332;2023-06-05T13:15:06;2.42;;;2.22;;
13208;SDS011;6669;42.678;23.332;2023-06-05T13:17:36;2.90;;;2.67;;
13208;SDS011;6669;42.678;23.332;2023-06-05T13:20:06;2.72;;;2.53;;
13208;SDS011;6669;42.678;23.332;2023-06-05T13:22:37;3.00;;;2.50;;
13208;SDS011;6669;42.678;23.332;2023-06-05T13:25:06;3.15;;;2.85;;
13208;SDS011;6669;42.678;23.332;2023-06-05T13:27:35;2.85;;;2.65;;
13208;SDS011;6669;42.678;23.332;2023-06-05T13:30:04;2.85;;;2.58;;
13208;SDS011;6669;42.678;23.332;2023-06-05T13:32:34;3.83;;;3.00;;
13208;SDS011;6669;42.678;23.332;2023-06-05T13:35:03;2.78;;;2.58;;
13208;SDS011;6669;42.678;23.332;2023-06-05T13:37:34;3.33;;;3.00;;
13208;SDS011;6669;42.678;23.332;2023-06-05T13:40:02;2.78;;;2.58;;
13208;SDS011;6669;42.678;23.332;2023-06-05T13:42:32;3.08;;;2.78;;
13208;SDS011;6669;42.678;23.332;2023-06-05T13:45:01;3.13;;;2.83;;
13208;SDS011;6669;42.678;23.332;2023-06-05T13:47:29;3.08;;;2.78;;
13208;SDS011;6669;42.678;23.332;2023-06-05T13:49:57;4.03;;;2.40;;
13208;SDS011;6669;42.678;23.332;2023-06-05T13:52:25;3.08;;;2.85;;
13208;SDS011;6669;42.678;23.332;2023-06-05T13:54:55;2.92;;;2.70;;
13208;SDS011;6669;42.678;23.332;2023-06-05T13:57:23;3.25;;;2.97;;
13208;SDS011;6669;42.678;23.332;2023-06-05T13:59:51;2.97;;;2.70;;
13208;SDS011;6669;42.678;23.332;2023-06-05T14:02:19;2.95;;;2.65;;
13208;SDS011;6669;42.678;23.332;2023-06-05T14:04:47;6.47;;;5.60;;
13208;SDS011;6669;42.678;23.332;2023-06-05T14:07:15;2.95;;;2.70;;
13208;SDS011;6669;42.678;23.332;2023-06-05T14:09:43;4.40;;;4.00;;
13208;SDS011;6669;42.678;23.332;2023-06-05T14:12:12;2.92;;;2.72;;
13208;SDS011;6669;42.678;23.332;2023-06-05T14:14:41;3.03;;;2.80;;
13208;SDS011;6669;42.678;23.332;2023-06-05T14:17:09;2.53;;;2.33;;
13208;SDS011;6669;42.678;23.332;2023-06-05T14:19:37;3.55;;;2.72;;
13208;SDS011;6669;42.678;23.332;2023-06-05T14:22:05;2.70;;;2.50;;
13208;SDS011;6669;42.678;23.332;2023-06-05T14:24:34;2.67;;;2.47;;
13208;SDS011;6669;42.678;23.332;2023-06-05T14:27:02;2.58;;;2.38;;
13208;SDS011;6669;42.678;23.332;2023-06-05T14:29:33;2.72;;;2.53;;
13208;SDS011;6669;42.678;23.332;2023-06-05T14:32:02;3.08;;;2.55;;
13208;SDS011;6669;42.678;23.332;2023-06-05T14:34:30;3.10;;;2.80;;
13208;SDS011;6669;42.678;23.332;2023-06-05T14:36:58;3.03;;;2.72;;
13208;SDS011;6669;42.678;23.332;2023-06-05T14:39:25;2.40;;;2.20;;
13208;SDS011;6669;42.678;23.332;2023-06-05T14:41:53;2.63;;;2.40;;
13208;SDS011;6669;42.678;23.332;2023-06-05T14:44:21;2.80;;;2.55;;
13208;SDS011;6669;42.678;23.332;2023-06-05T14:46:52;2.90;;;2.65;;
13208;SDS011;6669;42.678;23.332;2023-06-05T14:49:22;3.67;;;3.08;;
13208;SDS011;6669;42.678;23.332;2023-06-05T14:51:50;2.78;;;2.55;;
13208;SDS011;6669;42.678;23.332;2023-06-05T14:54:18;3.30;;;3.00;;
13208;SDS011;6669;42.678;23.332;2023-06-05T14:56:46;3.20;;;2.90;;
13208;SDS011;6669;42.678;23.332;2023-06-05T14:59:14;7.25;;;3.10;;
13208;SDS011;6669;42.678;23.332;2023-06-05T15:01:45;3.65;;;2.90;;
13208;SDS011;6669;42.678;23.332;2023-06-05T15:04:14;3.20;;;2.90;;
13208;SDS011;6669;42.678;23.332;2023-06-05T15:06:44;2.95;;;2.72;;
13208;SDS011;6669;42.678;23.332;2023-06-05T15:09:12;3.47;;;3.17;;
13208;SDS011;6669;42.678;23.332;2023-06-05T15:11:41;3.13;;;2.83;;
13208;SDS011;6669;42.678;23.332;2023-06-05T15:14:09;3.22;;;2.92;;
13208;SDS011;6669;42.678;23.332;2023-06-05T15:16:36;3.55;;;3.25;;
13208;SDS011;6669;42.678;23.332;2023-06-05T15:19:08;3.28;;;2.97;;
13208;SDS011;6669;42.678;23.332;2023-06-05T15:21:38;3.40;;;3.10;;
13208;SDS011;6669;42.678;23.332;2023-06-05T15:24:06;4.10;;;3.60;;